createdAt,value
2022-09-24T00:00:01.128Z,18
2022-09-24T00:02:01.214Z,16
2022-09-24T00:03:01.180Z,15
2022-09-24T00:04:01.199Z,16
2022-09-24T00:05:01.130Z,15
2022-09-24T00:08:01.095Z,14
2022-09-24T00:09:01.094Z,13
2022-09-24T00:10:01.136Z,15
2022-09-24T00:12:01.222Z,17
2022-09-24T00:13:01.094Z,18
2022-09-24T00:14:01.312Z,19
2022-09-24T00:15:01.139Z,16
2022-09-24T00:17:01.094Z,15
2022-09-24T00:19:01.096Z,16
2022-09-24T00:20:01.124Z,17
2022-09-24T00:24:01.188Z,18
2022-09-24T00:25:01.136Z,17
2022-09-24T00:26:01.104Z,19
2022-09-24T00:28:01.079Z,20
2022-09-24T00:29:01.081Z,18
2022-09-24T00:30:01.149Z,17
2022-09-24T00:32:01.218Z,15
2022-09-24T00:33:01.083Z,16
2022-09-24T00:34:01.154Z,18
2022-09-24T00:35:01.086Z,17
2022-09-24T00:37:01.085Z,16
2022-09-24T00:38:01.085Z,17
2022-09-24T00:39:01.082Z,16
2022-09-24T00:42:01.212Z,17
2022-09-24T00:43:01.082Z,16
2022-09-24T00:44:01.161Z,17
2022-09-24T00:45:01.085Z,17
2022-09-24T00:46:01.134Z,16
2022-09-24T00:48:01.084Z,15
2022-09-24T00:51:02.174Z,16
2022-09-24T00:53:01.085Z,17
2022-09-24T00:54:01.147Z,18
2022-09-24T00:55:01.083Z,17
2022-09-24T00:56:01.096Z,16
2022-09-24T00:59:01.084Z,15
2022-09-24T01:00:01.084Z,18
2022-09-24T01:01:01.172Z,19
2022-09-24T01:02:01.133Z,21
2022-09-24T01:03:01.093Z,20
2022-09-24T01:05:01.085Z,18
2022-09-24T01:06:01.084Z,17
2022-09-24T01:07:01.087Z,15
2022-09-24T01:08:01.083Z,16
2022-09-24T01:09:01.084Z,15
2022-09-24T01:10:01.082Z,14
2022-09-24T01:11:01.111Z,15
2022-09-24T01:12:01.085Z,16
2022-09-24T01:13:01.085Z,17
2022-09-24T01:14:01.115Z,18
2022-09-24T01:15:01.085Z,17
2022-09-24T01:17:01.112Z,16
2022-09-24T01:18:01.115Z,15
2022-09-24T01:20:01.089Z,20
2022-09-24T01:22:01.241Z,19
2022-09-24T01:23:01.084Z,18
2022-09-24T01:24:01.113Z,19
2022-09-24T01:25:01.088Z,15
2022-09-24T01:26:01.121Z,17
2022-09-24T01:27:01.088Z,19
2022-09-24T01:28:01.086Z,20
2022-09-24T01:30:01.088Z,21
2022-09-24T01:31:01.168Z,19
2022-09-24T01:34:01.163Z,20
2022-09-24T01:35:01.091Z,19
2022-09-24T01:37:01.113Z,21
2022-09-24T01:38:01.085Z,22
2022-09-24T01:39:01.084Z,21
2022-09-24T01:40:01.085Z,23
2022-09-24T01:41:01.084Z,24
2022-09-24T01:42:01.115Z,22
2022-09-24T01:43:01.089Z,19
2022-09-24T01:44:01.119Z,18
2022-09-24T01:45:01.086Z,17
2022-09-24T01:47:01.185Z,18
2022-09-24T01:48:01.092Z,19
2022-09-24T01:49:01.087Z,18
2022-09-24T01:51:01.111Z,17
2022-09-24T01:52:01.088Z,18
2022-09-24T01:53:01.119Z,17
2022-09-24T01:54:01.165Z,19
2022-09-24T01:57:01.088Z,17
2022-09-24T02:00:01.090Z,16
2022-09-24T02:01:01.174Z,15
2022-09-24T02:02:01.126Z,16
2022-09-24T02:04:01.207Z,15
2022-09-24T02:05:01.089Z,16
2022-09-24T02:07:01.118Z,18
2022-09-24T02:08:01.117Z,20
2022-09-24T02:09:01.096Z,21
2022-09-24T02:10:01.091Z,19
2022-09-24T02:11:01.091Z,21
2022-09-24T02:12:01.091Z,20
2022-09-24T02:13:01.134Z,19
2022-09-24T02:14:01.106Z,18
2022-09-24T02:15:01.091Z,19
2022-09-24T02:16:01.179Z,18
2022-09-24T02:17:01.091Z,17
2022-09-24T02:18:01.092Z,15
2022-09-24T02:19:01.121Z,16
2022-09-24T02:20:01.093Z,17
2022-09-24T02:21:01.092Z,18
2022-09-24T02:22:01.093Z,19
2022-09-24T02:23:01.116Z,20
2022-09-24T02:24:01.162Z,21
2022-09-24T02:26:01.094Z,19
2022-09-24T02:27:01.094Z,17
2022-09-24T02:28:01.094Z,19
2022-09-24T02:30:01.121Z,18
2022-09-24T02:31:01.148Z,20
2022-09-24T02:33:01.098Z,18
2022-09-24T02:34:06.256Z,16
2022-09-24T02:35:01.096Z,17
2022-09-24T02:36:01.100Z,15
2022-09-24T02:37:01.095Z,14
2022-09-24T02:38:05.498Z,17
2022-09-24T02:40:01.156Z,18
2022-09-24T02:43:01.149Z,20
2022-09-24T02:44:01.140Z,18
2022-09-24T02:45:01.111Z,17
2022-09-24T02:46:01.185Z,16
2022-09-24T02:47:01.085Z,17
2022-09-24T02:48:01.083Z,15
2022-09-24T02:50:01.110Z,16
2022-09-24T02:51:01.083Z,18
2022-09-24T02:52:01.087Z,17
2022-09-24T02:54:01.138Z,19
2022-09-24T02:56:01.107Z,17
2022-09-24T02:57:01.086Z,18
2022-09-24T02:59:01.084Z,17
2022-09-24T03:00:01.086Z,16
2022-09-24T03:02:01.239Z,15
2022-09-24T03:03:01.181Z,16
2022-09-24T03:05:01.121Z,18
2022-09-24T03:07:01.086Z,19
2022-09-24T03:08:01.087Z,18
2022-09-24T03:09:01.099Z,19
2022-09-24T03:11:01.221Z,18
2022-09-24T03:14:01.205Z,17
2022-09-24T03:15:01.115Z,17
2022-09-24T03:18:01.090Z,18
2022-09-24T03:19:01.091Z,17
2022-09-24T03:20:01.146Z,18
2022-09-24T03:21:01.089Z,19
2022-09-24T03:22:01.090Z,17
2022-09-24T03:24:01.145Z,16
2022-09-24T03:25:01.090Z,17
2022-09-24T03:26:01.090Z,16
2022-09-24T03:27:01.093Z,18
2022-09-24T03:29:01.091Z,19
2022-09-24T03:30:01.151Z,18
2022-09-24T03:32:01.159Z,17
2022-09-24T03:34:01.123Z,18
2022-09-24T03:35:01.374Z,17
2022-09-24T03:36:01.093Z,18
2022-09-24T03:37:01.096Z,19
2022-09-24T03:38:01.095Z,21
2022-09-24T03:39:01.096Z,19
2022-09-24T03:40:01.245Z,20
2022-09-24T03:43:01.227Z,17
2022-09-24T03:44:01.170Z,18
2022-09-24T03:45:01.132Z,18
2022-09-24T03:47:01.121Z,19
2022-09-24T03:49:01.120Z,18
2022-09-24T03:50:01.122Z,16
2022-09-24T03:52:01.161Z,15
2022-09-24T03:53:01.097Z,16
2022-09-24T03:55:01.111Z,17
2022-09-24T03:57:01.081Z,18
2022-09-24T03:58:01.088Z,19
2022-09-24T04:00:01.117Z,19
2022-09-24T04:01:01.084Z,21
2022-09-24T04:02:01.164Z,20
2022-09-24T04:04:01.189Z,22
2022-09-24T04:06:01.083Z,21
2022-09-24T04:07:01.087Z,20
2022-09-24T04:08:01.092Z,19
2022-09-24T04:12:01.214Z,21
2022-09-24T04:13:01.086Z,22
2022-09-24T04:14:01.129Z,20
2022-09-24T04:15:01.086Z,21
2022-09-24T04:16:01.141Z,22
2022-09-24T04:18:01.087Z,19
2022-09-24T04:21:01.178Z,17
2022-09-24T04:22:01.087Z,14
2022-09-24T04:23:01.088Z,16
2022-09-24T04:24:01.148Z,15
2022-09-24T04:25:01.088Z,14
2022-09-24T04:26:01.087Z,16
2022-09-24T04:28:01.090Z,17
2022-09-24T04:29:01.090Z,18
2022-09-24T04:30:01.090Z,18
2022-09-24T04:32:01.091Z,19
2022-09-24T04:33:01.093Z,20
2022-09-24T04:34:01.120Z,19
2022-09-24T04:36:01.091Z,18
2022-09-24T04:37:01.118Z,17
2022-09-24T04:38:01.092Z,16
2022-09-24T04:40:01.141Z,15
2022-09-24T04:43:01.161Z,14
2022-09-24T04:44:01.172Z,15
2022-09-24T04:45:01.127Z,17
2022-09-24T04:47:01.146Z,19
2022-09-24T04:48:01.102Z,22
2022-09-24T04:49:01.160Z,21
2022-09-24T04:50:01.142Z,18
2022-09-24T04:52:01.163Z,17
2022-09-24T04:53:01.123Z,16
2022-09-24T04:54:01.099Z,17
2022-09-24T04:56:01.103Z,16
2022-09-24T04:58:01.083Z,18
2022-09-24T05:00:01.086Z,16
2022-09-24T05:02:03.823Z,19
2022-09-24T05:04:01.083Z,18
2022-09-24T05:05:01.084Z,20
2022-09-24T05:06:01.082Z,21
2022-09-24T05:07:01.083Z,22
2022-09-24T05:08:01.081Z,19
2022-09-24T05:09:01.185Z,21
2022-09-24T05:10:01.083Z,18
2022-09-24T05:11:01.085Z,20
2022-09-24T05:12:01.084Z,18
2022-09-24T05:13:01.083Z,21
2022-09-24T05:14:01.083Z,20
2022-09-24T05:15:01.081Z,22
2022-09-24T05:16:01.333Z,21
2022-09-24T05:18:01.082Z,20
2022-09-24T05:21:01.215Z,21
2022-09-24T05:22:01.157Z,18
2022-09-24T05:25:01.177Z,19
2022-09-24T05:26:02.113Z,18
2022-09-24T05:27:01.214Z,20
2022-09-24T05:28:01.213Z,18
2022-09-24T05:29:01.192Z,17
2022-09-24T05:30:01.084Z,18
2022-09-24T05:32:01.213Z,19
2022-09-24T05:33:01.086Z,21
2022-09-24T05:35:01.148Z,19
2022-09-24T05:36:01.158Z,21
2022-09-24T05:37:01.084Z,19
2022-09-24T05:40:01.083Z,21
2022-09-24T05:43:01.300Z,20
2022-09-24T05:44:01.088Z,21
2022-09-24T05:45:01.151Z,19
2022-09-24T05:46:01.203Z,18
2022-09-24T05:48:01.087Z,17
2022-09-24T05:50:01.083Z,19
2022-09-24T05:51:01.084Z,20
2022-09-24T05:52:01.082Z,19
2022-09-24T05:53:01.083Z,21
2022-09-24T05:54:01.082Z,20
2022-09-24T05:55:01.082Z,19
2022-09-24T05:56:01.083Z,16
2022-09-24T05:57:01.087Z,18
2022-09-24T05:58:01.083Z,17
2022-09-24T05:59:01.215Z,16
2022-09-24T06:00:01.093Z,17
2022-09-24T06:01:01.084Z,18
2022-09-24T06:03:01.150Z,19
2022-09-24T06:04:04.735Z,20
2022-09-24T06:05:01.086Z,21
2022-09-24T06:06:01.085Z,22
2022-09-24T06:07:01.094Z,21
2022-09-24T06:09:01.135Z,20
2022-09-24T06:10:01.087Z,19
2022-09-24T06:11:01.088Z,18
2022-09-24T06:12:01.089Z,19
2022-09-24T06:13:01.088Z,22
2022-09-24T06:15:01.193Z,22
2022-09-24T06:16:01.145Z,21
2022-09-24T06:17:01.087Z,19
2022-09-24T06:18:01.087Z,16
2022-09-24T06:21:01.214Z,19
2022-09-24T06:23:01.087Z,21
2022-09-24T06:24:01.155Z,22
2022-09-24T06:25:01.154Z,21
2022-09-24T06:26:01.153Z,20
2022-09-24T06:27:01.222Z,21
2022-09-24T06:30:01.438Z,21
2022-09-24T06:31:01.393Z,19
2022-09-24T06:32:01.153Z,18
2022-09-24T06:33:01.156Z,19
2022-09-24T06:34:01.161Z,21
2022-09-24T06:38:01.160Z,20
2022-09-24T06:39:01.273Z,16
2022-09-24T06:44:01.221Z,18
2022-09-24T06:45:01.095Z,19
2022-09-24T06:46:01.159Z,20
2022-09-24T06:47:01.285Z,19
2022-09-24T06:49:01.209Z,18
2022-09-24T06:50:01.229Z,17
2022-09-24T06:52:01.292Z,18
2022-09-24T06:56:01.222Z,19
2022-09-24T06:57:01.231Z,18
2022-09-24T06:58:01.187Z,16
2022-09-24T06:59:01.158Z,17
2022-09-24T07:00:01.282Z,15
2022-09-24T07:02:01.207Z,16
2022-09-24T07:03:01.184Z,17
2022-09-24T07:04:01.156Z,16
2022-09-24T07:05:01.258Z,18
2022-09-24T07:06:01.174Z,19
2022-09-24T07:07:01.221Z,18
2022-09-24T07:08:01.165Z,17
2022-09-24T07:09:01.168Z,18
2022-09-24T07:11:01.322Z,17
2022-09-24T07:12:01.179Z,16
2022-09-24T07:14:01.229Z,14
2022-09-24T07:18:01.172Z,15
2022-09-24T07:21:01.308Z,16
2022-09-24T07:22:01.146Z,17
2022-09-24T07:23:01.170Z,16
2022-09-24T07:24:01.217Z,17
2022-09-24T07:25:01.085Z,18
2022-09-24T07:26:01.091Z,19
2022-09-24T07:29:01.105Z,22
2022-09-24T07:30:01.197Z,20
2022-09-24T07:35:01.152Z,19
2022-09-24T07:36:01.149Z,18
2022-09-24T07:37:01.217Z,19
2022-09-24T07:38:01.088Z,18
2022-09-24T07:40:01.151Z,20
2022-09-24T07:41:01.201Z,21
2022-09-24T07:42:01.092Z,19
2022-09-24T07:43:01.084Z,18
2022-09-24T07:44:01.176Z,17
2022-09-24T07:45:01.161Z,17
2022-09-24T07:46:01.086Z,16
2022-09-24T07:47:01.273Z,18
2022-09-24T07:48:01.091Z,20
2022-09-24T07:49:01.150Z,19
2022-09-24T07:50:01.156Z,20
2022-09-24T07:51:01.085Z,21
2022-09-24T07:53:01.109Z,18
2022-09-24T07:54:01.223Z,19
2022-09-24T07:58:01.099Z,21
2022-09-24T07:59:01.103Z,20
2022-09-24T08:00:01.093Z,18
2022-09-24T08:01:01.087Z,19
2022-09-24T08:02:01.184Z,18
2022-09-24T08:04:01.135Z,16
2022-09-24T08:05:01.086Z,19
2022-09-24T08:07:01.170Z,20
2022-09-24T08:08:01.086Z,18
2022-09-24T08:09:01.110Z,19
2022-09-24T08:10:01.111Z,18
2022-09-24T08:12:01.217Z,17
2022-09-24T08:14:01.088Z,18
2022-09-24T08:15:01.087Z,17
2022-09-24T08:16:01.152Z,16
2022-09-24T08:18:01.088Z,17
2022-09-24T08:19:01.091Z,16
2022-09-24T08:20:01.090Z,17
2022-09-24T08:21:02.115Z,18
2022-09-24T08:22:01.089Z,19
2022-09-24T08:24:01.209Z,20
2022-09-24T08:25:01.199Z,19
2022-09-24T08:26:01.097Z,20
2022-09-24T08:29:01.153Z,17
2022-09-24T08:30:01.153Z,16
2022-09-24T08:32:01.228Z,17
2022-09-24T08:33:01.154Z,18
2022-09-24T08:34:01.156Z,19
2022-09-24T08:35:01.156Z,20
2022-09-24T08:38:01.159Z,18
2022-09-24T08:40:01.154Z,19
2022-09-24T08:41:01.116Z,18
2022-09-24T08:42:01.097Z,17
2022-09-24T08:43:04.249Z,20
2022-09-24T08:45:01.249Z,20
2022-09-24T08:47:01.184Z,19
2022-09-24T08:48:01.162Z,17
2022-09-24T08:49:01.157Z,18
2022-09-24T08:50:01.249Z,19
2022-09-24T08:51:01.157Z,18
2022-09-24T08:52:01.160Z,21
2022-09-24T08:53:01.157Z,22
2022-09-24T08:54:01.156Z,21
2022-09-24T08:56:01.094Z,22
2022-09-24T08:57:01.262Z,21
2022-09-24T08:58:01.117Z,19
2022-09-24T08:59:01.095Z,20
2022-09-24T09:00:01.137Z,17
2022-09-24T09:01:01.096Z,16
2022-09-24T09:02:01.229Z,18
2022-09-24T09:07:01.148Z,17
2022-09-24T09:08:01.082Z,15
2022-09-24T09:11:01.143Z,16
2022-09-24T09:12:01.086Z,17
2022-09-24T09:13:01.200Z,16
2022-09-24T09:15:01.111Z,17
2022-09-24T09:16:01.190Z,18
2022-09-24T09:17:01.126Z,17
2022-09-24T09:18:01.087Z,19
2022-09-24T09:19:01.213Z,18
2022-09-24T09:20:01.079Z,17
2022-09-24T09:22:01.141Z,19
2022-09-24T09:23:01.082Z,20
2022-09-24T09:24:01.080Z,21
2022-09-24T09:25:05.873Z,22
2022-09-24T09:26:01.084Z,21
2022-09-24T09:27:01.204Z,19
2022-09-24T09:28:01.081Z,20
2022-09-24T09:29:01.197Z,18
2022-09-24T09:30:01.107Z,17
2022-09-24T09:31:01.172Z,19
2022-09-24T09:32:01.081Z,20
2022-09-24T09:33:01.082Z,19
2022-09-24T09:35:01.108Z,20
2022-09-24T09:36:01.081Z,19
2022-09-24T09:37:01.187Z,18
2022-09-24T09:38:01.081Z,17
2022-09-24T09:40:01.436Z,18
2022-09-24T09:41:01.135Z,17
2022-09-24T09:42:01.088Z,18
2022-09-24T09:44:01.094Z,19
2022-09-24T09:45:01.200Z,18
2022-09-24T09:46:01.167Z,20
2022-09-24T09:47:01.180Z,18
2022-09-24T09:48:01.086Z,19
2022-09-24T09:49:01.087Z,17
2022-09-24T09:50:01.084Z,19
2022-09-24T09:51:01.119Z,18
2022-09-24T09:52:01.086Z,21
2022-09-24T09:53:01.085Z,22
2022-09-24T09:55:01.087Z,20
2022-09-24T09:57:01.114Z,19
2022-09-24T09:58:01.086Z,18
2022-09-24T09:59:01.086Z,19
2022-09-24T10:00:01.100Z,20
2022-09-24T10:01:01.119Z,19
2022-09-24T10:04:01.118Z,20
2022-09-24T10:05:01.090Z,19
2022-09-24T10:06:01.094Z,20
2022-09-24T10:08:01.120Z,19
2022-09-24T10:09:01.094Z,20
2022-09-24T10:10:01.095Z,19
2022-09-24T10:12:01.155Z,21
2022-09-24T10:14:01.137Z,19
2022-09-24T10:15:01.090Z,19
2022-09-24T10:17:01.113Z,18
2022-09-24T10:18:01.118Z,19
2022-09-24T10:20:01.092Z,20
2022-09-24T10:23:01.182Z,19
2022-09-24T10:25:01.092Z,17
2022-09-24T10:27:01.091Z,18
2022-09-24T10:28:01.120Z,17
2022-09-24T10:30:01.096Z,19
2022-09-24T10:31:01.185Z,17
2022-09-24T10:32:01.102Z,16
2022-09-24T10:33:01.160Z,18
2022-09-24T10:34:01.092Z,19
2022-09-24T10:35:01.174Z,18
2022-09-24T10:36:01.105Z,19
2022-09-24T10:37:01.107Z,20
2022-09-24T10:38:01.137Z,18
2022-09-24T10:42:01.095Z,17
2022-09-24T10:43:01.458Z,18
2022-09-24T10:45:01.091Z,19
2022-09-24T10:47:01.224Z,18
2022-09-24T10:49:01.129Z,17
2022-09-24T10:50:01.078Z,16
2022-09-24T10:52:01.208Z,17
2022-09-24T10:54:01.107Z,18
2022-09-24T10:55:01.080Z,16
2022-09-24T10:56:01.079Z,17
2022-09-24T10:57:01.080Z,18
2022-09-24T10:58:01.080Z,17
2022-09-24T10:59:01.122Z,19
2022-09-24T11:00:01.081Z,21
2022-09-24T11:01:01.088Z,20
2022-09-24T11:03:01.111Z,22
2022-09-24T11:04:01.080Z,19
2022-09-24T11:05:01.105Z,20
2022-09-24T11:08:01.096Z,16
2022-09-24T11:09:01.082Z,20
2022-09-24T11:11:01.209Z,19
2022-09-24T11:13:01.081Z,21
2022-09-24T11:14:01.104Z,18
2022-09-24T11:15:01.081Z,18
2022-09-24T11:17:01.096Z,19
2022-09-24T11:18:01.081Z,17
2022-09-24T11:19:01.085Z,20
2022-09-24T11:21:01.252Z,21
2022-09-24T11:24:01.159Z,19
2022-09-24T11:26:01.117Z,18
2022-09-24T11:27:01.111Z,17
2022-09-24T11:30:01.085Z,19
2022-09-24T11:32:01.300Z,18
2022-09-24T11:33:01.145Z,17
2022-09-24T11:34:01.149Z,16
2022-09-24T11:35:01.149Z,13
2022-09-24T11:37:01.113Z,14
2022-09-24T11:38:01.122Z,18
2022-09-24T11:40:01.087Z,21
2022-09-24T11:42:01.211Z,22
2022-09-24T11:43:01.113Z,21
2022-09-24T11:44:01.119Z,20
2022-09-24T11:45:01.146Z,18
2022-09-24T11:47:01.204Z,17
2022-09-24T11:50:01.115Z,19
2022-09-24T11:51:01.093Z,21
2022-09-24T11:53:01.111Z,20
2022-09-24T11:54:01.094Z,21
2022-09-24T11:55:01.125Z,20
2022-09-24T11:56:01.258Z,19
2022-09-24T11:57:01.093Z,18
2022-09-24T11:58:01.099Z,17
2022-09-24T12:00:01.126Z,17
2022-09-24T12:01:01.109Z,15
2022-09-24T12:02:01.214Z,17
2022-09-24T12:03:01.227Z,18
2022-09-24T12:04:01.098Z,17
2022-09-24T12:05:01.112Z,16
2022-09-24T12:06:01.090Z,18
2022-09-24T12:07:01.106Z,14
2022-09-24T12:08:01.103Z,13
2022-09-24T12:09:01.112Z,14
2022-09-24T12:11:01.153Z,15
2022-09-24T12:12:01.102Z,17
2022-09-24T12:13:01.103Z,18
2022-09-24T12:15:01.099Z,19
2022-09-24T12:16:01.186Z,17
2022-09-24T12:17:01.106Z,18
2022-09-24T12:20:01.102Z,16
2022-09-24T12:22:01.158Z,15
2022-09-24T12:23:01.103Z,14
2022-09-24T12:24:11.302Z,15
2022-09-24T12:25:01.145Z,17
2022-09-24T12:27:01.098Z,16
2022-09-24T12:30:01.097Z,16
2022-09-24T12:31:01.174Z,17
2022-09-24T12:32:01.128Z,18
2022-09-24T12:33:01.115Z,19
2022-09-24T12:34:01.108Z,21
2022-09-24T12:36:01.112Z,22
2022-09-24T12:37:01.095Z,21
2022-09-24T12:38:01.155Z,20
2022-09-24T12:39:01.110Z,18
2022-09-24T12:41:01.342Z,17
2022-09-24T12:43:01.093Z,18
2022-09-24T12:45:01.109Z,18
2022-09-24T12:46:01.092Z,19
2022-09-24T12:47:01.198Z,18
2022-09-24T12:48:01.091Z,19
2022-09-24T12:51:01.092Z,18
2022-09-24T12:52:01.444Z,19
2022-09-24T12:54:01.093Z,18
2022-09-24T12:56:01.111Z,20
2022-09-24T12:58:01.144Z,18
2022-09-24T13:00:01.090Z,17
2022-09-24T13:01:01.091Z,16
2022-09-24T13:02:01.204Z,18
2022-09-24T13:03:01.323Z,19
2022-09-24T13:04:01.091Z,20
2022-09-24T13:05:01.171Z,19
2022-09-24T13:06:01.156Z,18
2022-09-24T13:07:01.093Z,17
2022-09-24T13:08:01.247Z,18
2022-09-24T13:09:01.092Z,17
2022-09-24T13:10:01.093Z,19
2022-09-24T13:11:01.093Z,20
2022-09-24T13:13:01.121Z,19
2022-09-24T13:14:01.251Z,20
2022-09-24T13:15:01.094Z,17
2022-09-24T13:19:06.133Z,16
2022-09-24T13:20:01.094Z,17
2022-09-24T13:21:01.093Z,18
2022-09-24T13:22:01.094Z,19
2022-09-24T13:23:01.093Z,20
2022-09-24T13:25:01.099Z,19
2022-09-24T13:26:01.094Z,18
2022-09-24T13:27:01.094Z,19
2022-09-24T13:29:01.133Z,20
2022-09-24T13:30:01.132Z,21
2022-09-24T13:32:01.160Z,20
2022-09-24T13:34:01.133Z,22
2022-09-24T13:39:01.441Z,21
2022-09-24T13:41:01.145Z,20
2022-09-24T13:42:01.083Z,21
2022-09-24T13:43:01.178Z,20
2022-09-24T13:45:01.110Z,18
2022-09-24T13:48:01.108Z,19
2022-09-24T13:52:01.242Z,18
2022-09-24T13:53:01.133Z,17
2022-09-24T13:54:01.088Z,19
2022-09-24T13:56:01.090Z,17
2022-09-24T13:58:01.125Z,19
2022-09-24T13:59:01.156Z,17
2022-09-24T14:00:01.104Z,16
2022-09-24T14:01:01.093Z,17
2022-09-24T14:02:01.196Z,15
2022-09-24T14:03:01.129Z,13
2022-09-24T14:04:01.166Z,12
2022-09-24T14:05:01.174Z,14
2022-09-24T14:06:01.170Z,15
2022-09-24T14:07:01.182Z,16
2022-09-24T14:09:01.202Z,20
2022-09-24T14:10:01.171Z,19
2022-09-24T14:11:01.169Z,18
2022-09-24T14:12:01.116Z,20
2022-09-24T14:14:01.110Z,17
2022-09-24T14:15:01.150Z,17
2022-09-24T14:16:01.124Z,16
2022-09-24T14:19:01.149Z,17
2022-09-24T14:20:01.190Z,16
2022-09-24T14:21:01.172Z,18
2022-09-24T14:22:01.166Z,17
2022-09-24T14:23:01.166Z,16
2022-09-24T14:24:01.165Z,17
2022-09-24T14:26:01.108Z,16
2022-09-24T14:27:01.094Z,17
2022-09-24T14:28:01.089Z,19
2022-09-24T14:29:01.090Z,18
2022-09-24T14:30:01.121Z,19
2022-09-24T14:32:01.283Z,18
2022-09-24T14:33:01.090Z,17
2022-09-24T14:34:01.113Z,19
2022-09-24T14:35:01.091Z,20
2022-09-24T14:36:01.110Z,18
2022-09-24T14:37:01.089Z,20
2022-09-24T14:38:01.090Z,19
2022-09-24T14:39:01.091Z,17
2022-09-24T14:40:02.554Z,16
2022-09-24T14:41:01.122Z,18
2022-09-24T14:43:01.089Z,19
2022-09-24T14:45:01.092Z,20
2022-09-24T14:46:01.138Z,19
2022-09-24T14:47:02.117Z,18
2022-09-24T14:48:01.098Z,17
2022-09-24T14:51:01.191Z,16
2022-09-24T14:52:01.213Z,17
2022-09-24T14:54:01.097Z,20
2022-09-24T14:55:01.092Z,18
2022-09-24T14:56:01.090Z,19
2022-09-24T14:57:01.094Z,17
2022-09-24T14:58:01.093Z,19
2022-09-24T14:59:01.096Z,18
2022-09-24T15:00:01.094Z,17
2022-09-24T15:02:01.253Z,16
2022-09-24T15:03:01.091Z,17
2022-09-24T15:04:01.095Z,15
2022-09-24T15:06:01.154Z,16
2022-09-24T15:08:01.201Z,14
2022-09-24T15:09:01.091Z,15
2022-09-24T15:10:01.169Z,18
2022-09-24T15:13:01.220Z,19
2022-09-24T15:15:01.096Z,18
2022-09-24T15:16:01.187Z,17
2022-09-24T15:18:01.092Z,19
2022-09-24T15:20:01.218Z,21
2022-09-24T15:22:01.158Z,23
2022-09-24T15:25:02.167Z,20
2022-09-24T15:26:01.131Z,21
2022-09-24T15:27:01.095Z,19
2022-09-24T15:28:01.093Z,17
2022-09-24T15:29:01.097Z,15
2022-09-24T15:30:01.201Z,17
2022-09-24T15:31:01.182Z,16
2022-09-24T15:32:01.096Z,15
2022-09-24T15:34:01.127Z,19
2022-09-24T15:35:01.094Z,20
2022-09-24T15:36:01.121Z,19
2022-09-24T15:38:01.095Z,18
2022-09-24T15:39:01.093Z,15
2022-09-24T15:40:01.093Z,13
2022-09-24T15:41:01.247Z,14
2022-09-24T15:43:01.093Z,15
2022-09-24T15:45:01.098Z,17
2022-09-24T15:46:01.163Z,18
2022-09-24T15:47:01.095Z,19
2022-09-24T15:49:01.094Z,21
2022-09-24T15:50:01.096Z,20
2022-09-24T15:51:03.653Z,17
2022-09-24T15:53:01.095Z,18
2022-09-24T15:56:01.079Z,17
2022-09-24T15:57:01.107Z,18
2022-09-24T16:00:01.086Z,18
2022-09-24T16:01:01.081Z,19
2022-09-24T16:02:01.162Z,20
2022-09-24T16:04:01.091Z,18
2022-09-24T16:06:01.093Z,19
2022-09-24T16:07:01.107Z,16
2022-09-24T16:09:01.081Z,17
2022-09-24T16:10:01.086Z,18
2022-09-24T16:11:01.081Z,19
2022-09-24T16:12:01.113Z,21
2022-09-24T16:13:01.107Z,23
2022-09-24T16:14:01.086Z,25
2022-09-24T16:15:01.083Z,23
2022-09-24T16:17:01.112Z,22
2022-09-24T16:18:01.084Z,20
2022-09-24T16:19:01.082Z,19
2022-09-24T16:20:01.082Z,21
2022-09-24T16:21:01.084Z,19
2022-09-24T16:22:01.094Z,20
2022-09-24T16:23:01.114Z,19
2022-09-24T16:24:01.085Z,16
2022-09-24T16:26:01.085Z,17
2022-09-24T16:27:01.082Z,18
2022-09-24T16:28:01.113Z,19
2022-09-24T16:29:01.201Z,21
2022-09-24T16:30:01.088Z,21
2022-09-24T16:31:01.202Z,20
2022-09-24T16:32:01.085Z,18
2022-09-24T16:34:01.085Z,17
2022-09-24T16:36:01.094Z,18
2022-09-24T16:38:01.085Z,19
2022-09-24T16:39:01.084Z,18
2022-09-24T16:40:01.083Z,17
2022-09-24T16:41:01.214Z,18
2022-09-24T16:42:01.083Z,19
2022-09-24T16:43:01.084Z,18
2022-09-24T16:44:01.083Z,19
2022-09-24T16:45:01.108Z,19
2022-09-24T16:46:01.149Z,18
2022-09-24T16:47:01.180Z,19
2022-09-24T16:48:01.083Z,20
2022-09-24T16:49:01.084Z,18
2022-09-24T16:50:01.084Z,20
2022-09-24T16:51:01.083Z,19
2022-09-24T16:52:01.085Z,18
2022-09-24T16:53:01.088Z,19
2022-09-24T16:54:01.087Z,23
2022-09-24T16:55:01.086Z,22
2022-09-24T16:57:01.085Z,20
2022-09-24T16:58:01.085Z,18
2022-09-24T16:59:01.085Z,17
2022-09-24T17:00:01.084Z,15
2022-09-24T17:01:01.127Z,16
2022-09-24T17:02:01.153Z,18
2022-09-24T17:04:01.086Z,17
2022-09-24T17:05:01.789Z,20
2022-09-24T17:06:01.086Z,19
2022-09-24T17:08:01.086Z,18
2022-09-24T17:09:01.116Z,17
2022-09-24T17:11:01.151Z,16
2022-09-24T17:12:01.465Z,17
2022-09-24T17:14:01.178Z,18
2022-09-24T17:15:01.090Z,18
2022-09-24T17:17:01.115Z,17
2022-09-24T17:18:01.088Z,15
2022-09-24T17:19:01.115Z,16
2022-09-24T17:20:01.087Z,19
2022-09-24T17:21:01.095Z,20
2022-09-24T17:22:01.089Z,21
2022-09-24T17:23:01.093Z,23
2022-09-24T17:24:01.117Z,21
2022-09-24T17:25:01.089Z,18
2022-09-24T17:26:01.090Z,17
2022-09-24T17:28:01.090Z,16
2022-09-24T17:29:06.153Z,18
2022-09-24T17:30:01.091Z,17
2022-09-24T17:32:01.158Z,19
2022-09-24T17:33:01.118Z,20
2022-09-24T17:34:01.091Z,18
2022-09-24T17:35:01.096Z,17
2022-09-24T17:36:01.094Z,15
2022-09-24T17:37:01.096Z,14
2022-09-24T17:40:01.094Z,16
2022-09-24T17:41:01.204Z,18
2022-09-24T17:44:01.107Z,20
2022-09-24T17:45:01.098Z,20
2022-09-24T17:46:03.100Z,19
2022-09-24T17:48:01.161Z,18
2022-09-24T17:49:01.231Z,16
2022-09-24T17:52:01.238Z,15
2022-09-24T17:53:01.094Z,16
2022-09-24T17:55:01.094Z,18
2022-09-24T17:56:01.098Z,17
2022-09-24T17:57:01.098Z,18
2022-09-24T17:58:01.214Z,17
2022-09-24T17:59:01.431Z,18
2022-09-24T18:00:01.130Z,17
2022-09-24T18:01:01.116Z,18
2022-09-24T18:03:01.119Z,19
2022-09-24T18:04:01.125Z,20
2022-09-24T18:07:01.118Z,19
2022-09-24T18:10:01.094Z,18
2022-09-24T18:13:01.094Z,17
2022-09-24T18:14:01.132Z,18
2022-09-24T18:15:01.095Z,18
2022-09-24T18:19:01.135Z,17
2022-09-24T18:20:01.094Z,18
2022-09-24T18:22:01.157Z,19
2022-09-24T18:23:01.115Z,21
2022-09-24T18:25:01.119Z,22
2022-09-24T18:26:01.093Z,20
2022-09-24T18:27:01.092Z,19
2022-09-24T18:28:01.092Z,16
2022-09-24T18:30:01.120Z,15
2022-09-24T18:32:01.155Z,16
2022-09-24T18:35:01.121Z,14
2022-09-24T18:36:01.100Z,15
2022-09-24T18:37:01.148Z,16
2022-09-24T18:39:01.199Z,17
2022-09-24T18:40:01.119Z,18
2022-09-24T18:41:01.093Z,16
2022-09-24T18:42:01.091Z,15
2022-09-24T18:43:01.092Z,16
2022-09-24T18:45:01.121Z,15
2022-09-24T18:46:01.210Z,16
2022-09-24T18:47:01.132Z,19
2022-09-24T18:49:01.099Z,18
2022-09-24T18:50:01.127Z,19
2022-09-24T18:51:01.097Z,20
2022-09-24T18:52:01.248Z,18
2022-09-24T18:53:01.092Z,19
2022-09-24T18:55:01.154Z,17
2022-09-24T18:56:01.095Z,16
2022-09-24T18:57:01.164Z,15
2022-09-24T18:58:01.097Z,13
2022-09-24T19:00:01.338Z,14
2022-09-24T19:01:01.096Z,15
2022-09-24T19:02:01.225Z,17
2022-09-24T19:03:01.225Z,19
2022-09-24T19:04:01.096Z,20
2022-09-24T19:05:01.128Z,21
2022-09-24T19:06:01.094Z,22
2022-09-24T19:08:01.092Z,19
2022-09-24T19:09:01.102Z,18
2022-09-24T19:10:01.139Z,19
2022-09-24T19:11:01.119Z,18
2022-09-24T19:12:01.094Z,17
2022-09-24T19:13:01.096Z,18
2022-09-24T19:14:01.093Z,20
2022-09-24T19:15:01.140Z,19
2022-09-24T19:16:01.236Z,20
2022-09-24T19:17:01.100Z,22
2022-09-24T19:18:01.094Z,25
2022-09-24T19:19:01.094Z,23
2022-09-24T19:21:01.159Z,21
2022-09-24T19:22:01.096Z,19
2022-09-24T19:23:01.096Z,18
2022-09-24T19:24:01.105Z,17
2022-09-24T19:25:01.122Z,16
2022-09-24T19:26:01.097Z,18
2022-09-24T19:27:01.121Z,19
2022-09-24T19:28:01.095Z,18
2022-09-24T19:29:01.097Z,17
2022-09-24T19:30:01.142Z,18
2022-09-24T19:33:01.099Z,17
2022-09-24T19:35:01.144Z,16
2022-09-24T19:38:01.085Z,15
2022-09-24T19:39:01.082Z,17
2022-09-24T19:40:01.083Z,18
2022-09-24T19:41:01.149Z,20
2022-09-24T19:43:01.194Z,19
2022-09-24T19:44:04.639Z,17
2022-09-24T19:45:01.084Z,19
2022-09-24T19:46:01.128Z,18
2022-09-24T19:47:01.082Z,19